createdAt,value
2018-12-03T00:00:23.304Z,86.35
2018-12-03T00:02:57.845Z,86.27
2018-12-03T00:05:26.609Z,86.12
2018-12-03T00:07:55.032Z,86.39
2018-12-03T00:10:23.432Z,86.49
2018-12-03T00:12:51.881Z,86.54
2018-12-03T00:15:20.315Z,86.64
2018-12-03T00:17:48.736Z,86.59
2018-12-03T00:20:17.234Z,86.75
2018-12-03T00:22:45.682Z,86.71
2018-12-03T00:25:14.165Z,86.52
2018-12-03T00:27:51.566Z,86.67
2018-12-03T00:30:20.281Z,86.71
2018-12-03T00:32:48.795Z,86.69
2018-12-03T00:35:17.215Z,86.57
2018-12-03T00:37:45.633Z,86.50
2018-12-03T00:40:14.020Z,86.82
2018-12-03T00:42:48.988Z,86.84
2018-12-03T00:45:17.441Z,86.94
2018-12-03T00:47:45.847Z,86.80
2018-12-03T00:50:14.550Z,86.88
2018-12-03T00:52:42.981Z,86.71
2018-12-03T00:55:11.615Z,86.97
2018-12-03T00:57:40.074Z,86.89
2018-12-03T01:00:10.508Z,87.15
2018-12-03T01:02:38.915Z,86.92
2018-12-03T01:05:08.488Z,86.66
2018-12-03T01:07:37.286Z,86.82
2018-12-03T01:10:07.741Z,86.78
2018-12-03T01:12:36.321Z,86.64
2018-12-03T01:15:06.652Z,86.69
2018-12-03T01:17:35.063Z,86.92
2018-12-03T01:20:03.937Z,86.79
2018-12-03T01:22:32.452Z,86.71
2018-12-03T01:25:00.844Z,86.76
2018-12-03T01:27:29.282Z,86.68
2018-12-03T01:29:57.700Z,86.89
2018-12-03T01:32:26.283Z,86.71
2018-12-03T01:34:54.909Z,86.97
2018-12-03T01:37:23.380Z,86.81
2018-12-03T01:39:51.793Z,86.98
2018-12-03T01:42:20.909Z,86.96
2018-12-03T01:44:49.368Z,86.87
2018-12-03T01:47:17.756Z,86.93
2018-12-03T01:49:47.423Z,87.02
2018-12-03T01:52:15.849Z,87.02
2018-12-03T01:54:44.360Z,87.08
2018-12-03T01:57:13.141Z,87.03
2018-12-03T01:59:41.550Z,86.99
2018-12-03T02:02:10.061Z,86.83
2018-12-03T02:04:38.630Z,86.94
2018-12-03T02:07:07.067Z,86.73
2018-12-03T02:09:36.464Z,86.75
2018-12-03T02:12:04.973Z,86.77
2018-12-03T02:14:33.381Z,86.91
2018-12-03T02:17:01.756Z,86.55
2018-12-03T02:19:30.191Z,86.74
2018-12-03T02:21:58.593Z,86.83
2018-12-03T02:24:26.977Z,86.79
2018-12-03T02:26:55.404Z,86.71
2018-12-03T02:29:23.906Z,86.97
2018-12-03T02:31:52.986Z,87.02
2018-12-03T02:34:21.412Z,86.91
2018-12-03T02:36:50.273Z,86.87
2018-12-03T02:39:18.672Z,87.09
2018-12-03T02:41:47.212Z,87.09
2018-12-03T02:44:15.628Z,86.93
2018-12-03T02:46:44.145Z,87.03
2018-12-03T02:49:12.576Z,86.89
2018-12-03T02:51:40.958Z,86.95
2018-12-03T02:54:09.373Z,87.07
2018-12-03T02:56:37.878Z,87.10
2018-12-03T02:59:06.677Z,87.08
2018-12-03T03:01:35.105Z,87.29
2018-12-03T03:04:03.531Z,86.92
2018-12-03T03:06:31.926Z,87.14
2018-12-03T03:09:00.673Z,87.14
2018-12-03T03:11:29.385Z,87.47
2018-12-03T03:13:57.792Z,87.37
2018-12-03T03:16:26.285Z,87.40
2018-12-03T03:18:54.714Z,87.78
2018-12-03T03:21:23.119Z,87.50
2018-12-03T03:23:51.502Z,87.35
2018-12-03T03:26:19.935Z,87.56
2018-12-03T03:28:48.771Z,87.47
2018-12-03T03:31:17.146Z,87.29
2018-12-03T03:33:45.681Z,87.41
2018-12-03T03:36:14.113Z,87.46
2018-12-03T03:38:43.111Z,87.50
2018-12-03T03:41:11.534Z,87.35
2018-12-03T03:43:39.912Z,87.53
2018-12-03T03:46:08.311Z,87.34
2018-12-03T03:48:36.740Z,87.49
2018-12-03T03:51:05.308Z,87.61
2018-12-03T03:53:33.679Z,87.76
2018-12-03T03:56:02.136Z,87.63
2018-12-03T03:58:30.537Z,87.80
2018-12-03T04:00:59.273Z,87.85
2018-12-03T04:03:27.930Z,87.97
2018-12-03T04:05:56.322Z,87.64
2018-12-03T04:08:24.751Z,87.72
2018-12-03T04:10:53.169Z,87.67
2018-12-03T04:13:21.549Z,87.61
2018-12-03T04:15:49.956Z,87.79
2018-12-03T04:18:18.389Z,87.92
2018-12-03T04:20:46.766Z,88.04
2018-12-03T04:23:15.172Z,87.86
2018-12-03T04:25:43.608Z,87.98
2018-12-03T04:28:12.009Z,87.95
2018-12-03T04:30:40.648Z,87.99
2018-12-03T04:33:12.201Z,88.07
2018-12-03T04:35:40.641Z,87.92
2018-12-03T04:38:09.161Z,88.08
2018-12-03T04:40:38.095Z,88.12
2018-12-03T04:43:06.523Z,88.20
2018-12-03T04:45:34.994Z,88.12
2018-12-03T04:48:03.560Z,88.25
2018-12-03T04:50:31.987Z,87.99
2018-12-03T04:53:00.423Z,88.46
2018-12-03T04:55:28.833Z,88.19
2018-12-03T04:57:57.227Z,88.50
2018-12-03T05:00:25.686Z,88.38
2018-12-03T05:02:54.293Z,88.27
2018-12-03T05:05:22.781Z,88.55
2018-12-03T05:07:51.212Z,88.42
2018-12-03T05:10:21.069Z,88.43
2018-12-03T05:12:50.630Z,88.46
2018-12-03T05:15:19.086Z,88.49
2018-12-03T05:17:47.582Z,88.71
2018-12-03T05:20:18.416Z,88.77
2018-12-03T05:22:46.819Z,88.74
2018-12-03T05:25:19.218Z,88.60
2018-12-03T05:27:43.715Z,88.66
2018-12-03T05:30:13.996Z,88.79
2018-12-03T05:32:43.122Z,88.75
2018-12-03T05:35:12.893Z,88.76
2018-12-03T05:37:41.736Z,88.84
2018-12-03T05:40:13.714Z,88.90
2018-12-03T05:42:42.224Z,88.69
2018-12-03T05:45:10.972Z,88.62
2018-12-03T05:47:39.443Z,88.76
2018-12-03T05:50:13.329Z,88.97
2018-12-03T05:52:41.833Z,88.69
2018-12-03T05:55:11.565Z,88.97
2018-12-03T05:57:39.998Z,88.78
2018-12-03T06:00:13.905Z,88.96
2018-12-03T06:02:42.340Z,88.96
2018-12-03T06:05:12.085Z,88.98
2018-12-03T06:07:40.521Z,89.10
2018-12-03T06:10:11.252Z,89.10
2018-12-03T06:12:39.732Z,89.09
2018-12-03T06:15:09.937Z,88.98
2018-12-03T06:17:38.793Z,89.17
2018-12-03T06:20:09.836Z,88.96
2018-12-03T06:22:38.296Z,89.17
2018-12-03T06:25:09.416Z,89.22
2018-12-03T06:27:37.958Z,89.34
2018-12-03T06:30:13.400Z,89.21
2018-12-03T06:32:42.012Z,89.26
2018-12-03T06:35:12.205Z,89.21
2018-12-03T06:37:40.717Z,89.23
2018-12-03T06:40:13.460Z,89.07
2018-12-03T06:42:41.931Z,89.41
2018-12-03T06:45:13.013Z,89.07
2018-12-03T06:47:44.037Z,89.20
2018-12-03T06:50:12.613Z,89.08
2018-12-03T06:52:41.037Z,89.42
2018-12-03T06:55:10.731Z,89.42
2018-12-03T06:57:39.233Z,89.30
2018-12-03T07:00:14.317Z,89.38
2018-12-03T07:02:43.058Z,89.30
2018-12-03T07:05:12.843Z,89.17
2018-12-03T07:07:42.461Z,89.54
2018-12-03T07:10:12.585Z,89.37
2018-12-03T07:12:41.038Z,89.54
2018-12-03T07:15:10.901Z,89.37
2018-12-03T07:17:39.476Z,89.52
2018-12-03T07:20:11.289Z,89.32
2018-12-03T07:22:40.117Z,89.76
2018-12-03T07:25:09.964Z,89.48
2018-12-03T07:27:38.525Z,89.60
2018-12-03T07:30:24.898Z,89.60
2018-12-03T07:32:53.938Z,89.57
2018-12-03T07:35:23.297Z,89.33
2018-12-03T07:37:54.070Z,89.44
2018-12-03T07:40:22.485Z,89.32
2018-12-03T07:42:50.896Z,89.52
2018-12-03T07:45:20.409Z,89.34
2018-12-03T07:47:48.899Z,89.31
2018-12-03T07:50:18.407Z,89.36
2018-12-03T07:52:47.056Z,89.13
2018-12-03T07:55:18.536Z,89.06
2018-12-03T07:57:59.201Z,89.21
2018-12-03T08:00:31.289Z,89.13
2018-12-03T08:02:59.742Z,89.32
2018-12-03T08:05:28.476Z,89.19
2018-12-03T08:07:56.920Z,89.09
2018-12-03T08:10:25.448Z,89.23
2018-12-03T08:12:54.223Z,89.11
2018-12-03T08:15:23.089Z,89.22
2018-12-03T08:17:54.570Z,89.16
2018-12-03T08:20:29.237Z,89.33
2018-12-03T08:23:01.826Z,89.41
2018-12-03T08:25:30.506Z,89.17
2018-12-03T08:27:58.910Z,89.34
2018-12-03T08:30:27.366Z,89.31
2018-12-03T08:32:55.741Z,89.30
2018-12-03T08:35:24.192Z,89.19
2018-12-03T08:37:52.742Z,89.35
2018-12-03T08:40:21.233Z,89.30
2018-12-03T08:42:52.056Z,89.33
2018-12-03T08:45:22.011Z,89.05
2018-12-03T08:47:51.037Z,89.26
2018-12-03T08:50:21.531Z,89.18
2018-12-03T08:52:50.053Z,89.01
2018-12-03T08:55:18.467Z,89.34
2018-12-03T08:57:46.920Z,89.26
2018-12-03T09:00:20.838Z,89.35
2018-12-03T09:03:26.923Z,89.19
2018-12-03T09:05:56.307Z,89.10
2018-12-03T09:08:27.027Z,89.20
2018-12-03T09:10:55.509Z,88.90
2018-12-03T09:13:24.601Z,89.05
2018-12-03T09:15:58.536Z,89.03
2018-12-03T09:18:36.869Z,89.21
2018-12-03T09:21:13.740Z,88.88
2018-12-03T09:23:44.238Z,88.67
2018-12-03T09:26:13.199Z,88.98
2018-12-03T09:28:41.727Z,89.07
2018-12-03T09:31:10.765Z,89.14
2018-12-03T09:33:39.178Z,88.92
2018-12-03T09:36:07.616Z,89.19
2018-12-03T09:38:47.449Z,89.18
2018-12-03T09:41:15.883Z,89.24
2018-12-03T09:43:44.334Z,89.22
2018-12-03T09:46:13.033Z,88.95
2018-12-03T09:48:41.494Z,89.27
2018-12-03T09:51:09.905Z,88.97
2018-12-03T09:53:38.336Z,88.87
2018-12-03T09:56:07.625Z,89.01
2018-12-03T09:58:36.024Z,89.26
2018-12-03T10:01:04.555Z,89.22
2018-12-03T10:03:38.864Z,89.36
2018-12-03T10:06:10.728Z,89.20
2018-12-03T10:08:39.146Z,89.13
2018-12-03T10:11:08.064Z,88.96
2018-12-03T10:13:36.468Z,89.20
2018-12-03T10:16:05.040Z,89.04
2018-12-03T10:18:33.448Z,89.32
2018-12-03T10:21:02.400Z,89.17
2018-12-03T10:23:30.901Z,88.99
2018-12-03T10:26:00.649Z,89.11
2018-12-03T10:28:29.476Z,89.02
2018-12-03T10:30:58.771Z,89.43
2018-12-03T10:33:31.772Z,89.16
2018-12-03T10:36:01.966Z,89.19
2018-12-03T10:38:33.043Z,88.97
2018-12-03T10:41:11.121Z,89.25
2018-12-03T10:43:40.221Z,88.78
2018-12-03T10:46:09.975Z,89.30
2018-12-03T10:48:38.787Z,89.40
2018-12-03T10:51:13.736Z,89.31
2018-12-03T10:53:42.262Z,89.12
2018-12-03T10:56:10.725Z,89.23
2018-12-03T10:58:42.323Z,89.41
2018-12-03T11:01:16.077Z,89.13
2018-12-03T11:03:49.909Z,89.39
2018-12-03T11:06:20.618Z,89.13
2018-12-03T11:08:49.075Z,89.47
2018-12-03T11:11:17.588Z,89.39
2018-12-03T11:13:46.114Z,89.25
2018-12-03T11:16:37.041Z,89.39
2018-12-03T11:19:06.845Z,89.28
2018-12-03T11:21:35.397Z,89.17
2018-12-03T11:24:04.200Z,89.09
2018-12-03T11:26:35.942Z,89.08
2018-12-03T11:29:05.270Z,89.08
2018-12-03T11:31:34.625Z,89.42
2018-12-03T11:34:36.863Z,89.46
2018-12-03T11:37:08.520Z,89.50
2018-12-03T11:39:57.713Z,89.47
2018-12-03T11:42:30.007Z,89.50
2018-12-03T11:44:58.517Z,89.47
2018-12-03T11:47:26.910Z,89.40
2018-12-03T11:49:55.633Z,89.38
2018-12-03T11:52:24.541Z,89.46
2018-12-03T11:54:52.910Z,89.44
2018-12-03T11:57:21.423Z,89.50
2018-12-03T11:59:49.996Z,89.34
2018-12-03T12:02:18.481Z,89.58
2018-12-03T12:04:46.860Z,89.43
2018-12-03T12:07:15.473Z,89.32
2018-12-03T12:09:43.870Z,89.37
2018-12-03T12:12:12.384Z,89.52
2018-12-03T12:14:40.805Z,89.26
2018-12-03T12:17:09.185Z,89.29
2018-12-03T12:19:37.771Z,89.41
2018-12-03T12:22:06.814Z,89.30
2018-12-03T12:24:36.415Z,89.22
2018-12-03T12:27:05.680Z,89.27
2018-12-03T12:29:34.095Z,89.49
2018-12-03T12:32:02.508Z,89.24
2018-12-03T12:34:30.921Z,89.24
2018-12-03T12:36:59.347Z,89.22
2018-12-03T12:39:28.025Z,89.20
2018-12-03T12:41:56.414Z,89.33
2018-12-03T12:44:24.830Z,89.38
2018-12-03T12:46:53.618Z,89.14
2018-12-03T12:49:21.991Z,89.09
2018-12-03T12:51:51.667Z,89.36
2018-12-03T12:54:20.396Z,89.14
2018-12-03T12:56:48.776Z,89.12
2018-12-03T12:59:17.557Z,88.99
2018-12-03T13:01:46.012Z,88.83
2018-12-03T13:04:14.453Z,89.10
2018-12-03T13:06:42.874Z,89.15
2018-12-03T13:09:11.631Z,89.07
2018-12-03T13:11:40.984Z,89.18
2018-12-03T13:14:11.572Z,89.21
2018-12-03T13:16:40.182Z,88.99
2018-12-03T13:19:09.425Z,88.94
2018-12-03T13:21:38.814Z,89.20
2018-12-03T13:24:07.641Z,89.15
2018-12-03T13:26:38.693Z,89.11
2018-12-03T13:29:07.616Z,89.35
2018-12-03T13:31:36.715Z,89.30
2018-12-03T13:34:06.344Z,89.41
2018-12-03T13:36:34.881Z,89.28
2018-12-03T13:39:05.661Z,89.29
2018-12-03T13:41:34.144Z,89.26
2018-12-03T13:44:02.857Z,89.48
2018-12-03T13:46:31.249Z,89.61
2018-12-03T13:48:59.814Z,89.69
2018-12-03T13:51:28.235Z,89.45
2018-12-03T13:53:56.753Z,89.50
2018-12-03T13:56:25.180Z,89.43
2018-12-03T13:58:53.654Z,89.70
2018-12-03T14:01:24.742Z,89.81
2018-12-03T14:03:57.283Z,89.39
2018-12-03T14:06:38.679Z,89.86
2018-12-03T14:09:19.759Z,89.65
2018-12-03T14:11:57.553Z,89.85
2018-12-03T14:14:45.575Z,89.66
2018-12-03T14:17:21.810Z,89.75
2018-12-03T14:19:54.145Z,89.68
2018-12-03T14:22:26.774Z,89.77
2018-12-03T14:24:55.188Z,89.92
2018-12-03T14:27:23.562Z,89.99
2018-12-03T14:29:52.154Z,89.92
2018-12-03T14:32:20.598Z,90.00
2018-12-03T14:34:49.108Z,90.12
2018-12-03T14:37:17.560Z,90.32
2018-12-03T14:39:46.055Z,90.16
2018-12-03T14:42:14.453Z,90.16
2018-12-03T14:44:42.932Z,90.37
2018-12-03T14:47:11.310Z,90.37
2018-12-03T14:49:39.697Z,90.29
2018-12-03T14:52:08.246Z,90.44
2018-12-03T14:54:36.993Z,90.69
2018-12-03T14:57:05.404Z,90.61
2018-12-03T14:59:33.849Z,90.46
2018-12-03T15:02:02.352Z,90.74
2018-12-03T15:04:30.744Z,90.68
2018-12-03T15:06:59.176Z,90.83
2018-12-03T15:09:27.881Z,90.55
2018-12-03T15:11:56.265Z,90.71
2018-12-03T15:14:24.668Z,90.58
2018-12-03T15:16:53.117Z,90.80
2018-12-03T15:19:21.513Z,90.88
2018-12-03T15:21:49.973Z,90.80
2018-12-03T15:24:18.424Z,90.80
2018-12-03T15:26:46.853Z,91.02
2018-12-03T15:29:15.379Z,90.90
2018-12-03T15:31:43.818Z,90.54
2018-12-03T15:34:12.264Z,90.61
2018-12-03T15:36:40.779Z,90.94
2018-12-03T15:39:10.161Z,90.70
2018-12-03T15:41:38.959Z,90.94
2018-12-03T15:44:07.417Z,90.76
2018-12-03T15:46:35.812Z,90.98
2018-12-03T15:49:04.349Z,90.91
2018-12-03T15:51:32.769Z,90.79
2018-12-03T15:54:01.265Z,90.72
2018-12-03T15:56:30.200Z,90.81
2018-12-03T15:58:58.617Z,91.03
2018-12-03T16:01:27.001Z,90.91
2018-12-03T16:03:55.422Z,90.91
2018-12-03T16:06:24.006Z,90.77
2018-12-03T16:08:52.399Z,90.73
2018-12-03T16:11:20.901Z,90.59
2018-12-03T16:13:49.347Z,90.84
2018-12-03T16:16:17.726Z,90.67
2018-12-03T16:18:46.102Z,90.46
2018-12-03T16:21:14.652Z,90.87
2018-12-03T16:23:43.896Z,90.67
2018-12-03T16:26:12.279Z,90.74
2018-12-03T16:28:40.813Z,90.57
2018-12-03T16:31:09.397Z,90.65
2018-12-03T16:33:37.792Z,90.68
2018-12-03T16:36:06.223Z,90.69
2018-12-03T16:38:34.645Z,90.50
2018-12-03T16:41:03.134Z,90.48
2018-12-03T16:43:31.699Z,90.36
2018-12-03T16:46:00.360Z,90.59
2018-12-03T16:48:28.789Z,90.43
2018-12-03T16:50:57.307Z,90.34
2018-12-03T16:53:25.758Z,90.36
2018-12-03T16:55:54.267Z,90.05
2018-12-03T16:58:22.802Z,90.21
2018-12-03T17:00:51.203Z,90.14
2018-12-03T17:03:19.613Z,90.16
2018-12-03T17:05:48.032Z,90.00
2018-12-03T17:08:16.409Z,90.05
2018-12-03T17:10:44.908Z,90.08
2018-12-03T17:13:13.790Z,90.29
2018-12-03T17:15:42.160Z,90.13
2018-12-03T17:18:10.559Z,90.02
2018-12-03T17:20:44.519Z,90.13
2018-12-03T17:24:20.204Z,89.97
2018-12-03T17:26:55.298Z,89.72
2018-12-03T17:29:23.701Z,89.74
2018-12-03T17:31:52.176Z,89.92
2018-12-03T17:34:20.605Z,90.01
2018-12-03T17:36:48.991Z,89.94
2018-12-03T17:39:17.431Z,89.96
2018-12-03T17:41:45.953Z,90.29
2018-12-03T17:44:14.356Z,90.20
2018-12-03T17:46:42.761Z,90.41
2018-12-03T17:49:11.714Z,90.28
2018-12-03T17:51:40.132Z,90.32
2018-12-03T17:54:08.539Z,90.33
2018-12-03T17:56:37.061Z,90.27
2018-12-03T17:59:05.545Z,90.78
2018-12-03T18:01:33.956Z,90.58
2018-12-03T18:04:02.492Z,90.12
2018-12-03T18:06:30.897Z,90.50
2018-12-03T18:08:59.421Z,90.67
2018-12-03T18:11:27.837Z,90.52
2018-12-03T18:13:56.811Z,90.49
2018-12-03T18:16:25.195Z,90.63
2018-12-03T18:18:53.597Z,90.50
2018-12-03T18:21:21.968Z,90.34
2018-12-03T18:23:50.354Z,90.43
2018-12-03T18:26:18.906Z,90.35
2018-12-03T18:28:47.328Z,90.54
2018-12-03T18:31:15.793Z,90.60
2018-12-03T18:33:44.249Z,90.56
2018-12-03T18:36:12.657Z,90.42
2018-12-03T18:38:41.033Z,90.50
2018-12-03T18:41:09.453Z,90.53
2018-12-03T18:43:37.855Z,90.49
2018-12-03T18:46:06.224Z,90.46
2018-12-03T18:48:34.965Z,90.39
2018-12-03T18:51:03.461Z,90.28
2018-12-03T18:53:32.167Z,90.24
2018-12-03T18:56:00.740Z,90.40
2018-12-03T18:58:54.717Z,90.36
2018-12-03T19:01:24.214Z,90.23
2018-12-03T19:03:52.701Z,90.49
2018-12-03T19:06:21.377Z,90.47
2018-12-03T19:08:49.805Z,90.52
2018-12-03T19:11:18.248Z,90.52
2018-12-03T19:13:46.650Z,90.45
2018-12-03T19:16:15.198Z,90.40
2018-12-03T19:18:43.652Z,90.37
2018-12-03T19:21:12.123Z,90.60
2018-12-03T19:23:40.557Z,90.72
2018-12-03T19:26:09.193Z,90.65
2018-12-03T19:28:37.599Z,90.76
2018-12-03T19:31:06.356Z,90.84
2018-12-03T19:33:34.925Z,90.74
2018-12-03T19:36:03.402Z,90.88
2018-12-03T19:38:31.870Z,90.69
2018-12-03T19:41:00.345Z,90.75
2018-12-03T19:43:28.756Z,90.84
2018-12-03T19:45:57.329Z,90.93
2018-12-03T19:48:25.796Z,91.06
2018-12-03T19:50:54.246Z,91.12
2018-12-03T19:53:22.835Z,90.95
2018-12-03T19:55:51.978Z,90.96
2018-12-03T19:58:24.798Z,91.02
2018-12-03T20:00:53.223Z,90.96
2018-12-03T20:03:21.777Z,91.09
2018-12-03T20:05:50.239Z,91.08
2018-12-03T20:08:18.664Z,91.04
2018-12-03T20:10:47.177Z,91.14
2018-12-03T20:13:15.635Z,91.34
2018-12-03T20:15:44.069Z,91.21
2018-12-03T20:18:12.651Z,91.20
2018-12-03T20:20:46.446Z,91.37
2018-12-03T20:23:25.842Z,91.27
2018-12-03T20:26:28.681Z,91.36
2018-12-03T20:29:33.376Z,91.05
2018-12-03T20:33:10.239Z,91.04
2018-12-03T20:36:06.908Z,91.12
2018-12-03T20:38:43.593Z,91.05
2018-12-03T20:41:31.367Z,91.13
2018-12-03T20:44:06.790Z,91.11
2018-12-03T20:47:11.074Z,91.22
2018-12-03T20:49:59.761Z,91.32
2018-12-03T20:52:30.017Z,91.14
2018-12-03T20:55:03.185Z,91.19
2018-12-03T20:57:37.801Z,91.18
2018-12-03T21:00:06.897Z,91.39
2018-12-03T21:02:35.445Z,91.22
2018-12-03T21:05:04.613Z,91.26
2018-12-03T21:07:33.101Z,91.27
2018-12-03T21:10:01.911Z,91.26
2018-12-03T21:12:30.315Z,91.11
2018-12-03T21:14:58.764Z,91.00
2018-12-03T21:17:27.430Z,90.98
2018-12-03T21:20:01.145Z,91.13
2018-12-03T21:22:29.612Z,91.19
2018-12-03T21:24:58.057Z,91.34
2018-12-03T21:27:26.461Z,91.17
2018-12-03T21:29:54.883Z,91.17
2018-12-03T21:32:23.492Z,91.18
2018-12-03T21:34:51.929Z,91.17
2018-12-03T21:37:20.352Z,91.17
2018-12-03T21:39:48.749Z,91.14
2018-12-03T21:42:17.180Z,91.14
2018-12-03T21:44:45.575Z,91.24
2018-12-03T21:47:13.996Z,91.16
2018-12-03T21:49:42.437Z,91.17
2018-12-03T21:52:10.822Z,91.25
2018-12-03T21:54:39.192Z,91.07
2018-12-03T21:57:10.782Z,90.99
2018-12-03T21:59:38.543Z,91.13
2018-12-03T22:02:07.031Z,91.04
2018-12-03T22:04:35.504Z,91.08
2018-12-03T22:07:04.145Z,91.24
2018-12-03T22:09:32.539Z,90.90
2018-12-03T22:12:00.968Z,90.91
2018-12-03T22:14:29.349Z,91.08
2018-12-03T22:16:57.729Z,91.15
2018-12-03T22:19:26.121Z,90.92
2018-12-03T22:21:54.941Z,90.91
2018-12-03T22:24:23.362Z,91.12
2018-12-03T22:26:51.948Z,90.91
2018-12-03T22:29:20.612Z,90.63
2018-12-03T22:31:49.001Z,90.85
2018-12-03T22:34:22.884Z,90.77
2018-12-03T22:36:47.973Z,91.07
2018-12-03T22:39:16.365Z,90.91
2018-12-03T22:41:44.873Z,90.81
2018-12-03T22:44:13.272Z,90.73
2018-12-03T22:46:41.681Z,90.85
2018-12-03T22:49:10.119Z,90.71
2018-12-03T22:51:38.555Z,90.66
2018-12-03T22:54:06.951Z,90.85
2018-12-03T22:56:35.376Z,90.61
2018-12-03T22:59:03.869Z,90.70
2018-12-03T23:01:32.524Z,90.65
2018-12-03T23:04:01.036Z,90.72
2018-12-03T23:06:29.412Z,90.69
2018-12-03T23:08:58.224Z,90.59
2018-12-03T23:11:26.640Z,90.56
2018-12-03T23:13:55.168Z,90.87
2018-12-03T23:16:23.539Z,90.80
2018-12-03T23:18:51.941Z,90.67
2018-12-03T23:21:20.385Z,90.64
2018-12-03T23:23:49.011Z,90.77
2018-12-03T23:26:17.467Z,90.72
2018-12-03T23:28:45.839Z,90.64
2018-12-03T23:31:14.646Z,90.71
2018-12-03T23:33:43.082Z,90.82
2018-12-03T23:36:11.465Z,90.78
2018-12-03T23:38:39.913Z,90.80
2018-12-03T23:41:08.325Z,90.62
2018-12-03T23:43:36.713Z,90.72
2018-12-03T23:46:05.217Z,90.80
2018-12-03T23:48:33.779Z,90.73
2018-12-03T23:51:02.597Z,90.93
2018-12-03T23:53:30.998Z,90.67
2018-12-03T23:55:59.473Z,90.43
2018-12-03T23:58:27.845Z,90.44
